Popsquash, Vermont
Current Conditions -  °F | °C
As of 7:35 AM on Monday 20 Oct 2014 (Local Time) from KFSO Reporting Station
Scattered Clouds Scattered Clouds  
Wind Chill:   Ceiling: Unl
Heat Index:   Visibility: 10mi
Dew Point: -3°   Wind: 0mph
Humidity: 69%   Direction: NA
Pressure: 29.99"   Gusts: NA
Location:  44.9002°N, 73.1493°W
Report Text: KFSO 201135Z AUTO 00000KT 10SM SCT120 02/M03 A2999 RMK AO2 T00201031
Loading
Personal Weather Stations






























Interactive Weather Map
Tropical Storm Tracking
New forecast layout! Learn more

10-Day Weather Forecast

Advertisements
Track Severe Weather on mobile